createdAt,value
2022-11-08T00:03:18.649Z,10.61
2022-11-08T00:08:40.018Z,10.48
2022-11-08T00:13:59.980Z,10.57
2022-11-08T00:19:03.441Z,10.58
2022-11-08T00:24:07.692Z,10.44
2022-11-08T00:29:12.477Z,10.15
2022-11-08T00:34:16.033Z,10.03
2022-11-08T00:39:19.599Z,9.48
2022-11-08T00:44:24.614Z,9.64
2022-11-08T00:49:28.205Z,9.53
2022-11-08T00:54:31.730Z,9.33
2022-11-08T00:59:37.058Z,9.39
2022-11-08T01:04:40.567Z,9.31
2022-11-08T01:09:44.092Z,9.19
2022-11-08T01:14:49.008Z,8.95
2022-11-08T01:19:52.465Z,8.89
2022-11-08T01:24:55.922Z,8.64
2022-11-08T01:30:00.747Z,8.28
2022-11-08T01:35:04.551Z,8.39
2022-11-08T01:40:10.040Z,8.19
2022-11-08T01:45:15.148Z,7.93
2022-11-08T01:50:20.016Z,7.69
2022-11-08T01:55:30.275Z,7.51
2022-11-08T02:00:38.445Z,7.69
2022-11-08T02:05:41.942Z,7.52
2022-11-08T02:10:49.111Z,7.46
2022-11-08T02:15:55.021Z,7.46
2022-11-08T02:21:05.749Z,7.00
2022-11-08T02:26:10.890Z,7.08
2022-11-08T02:31:16.436Z,7.04
2022-11-08T02:36:22.755Z,6.85
2022-11-08T02:41:27.719Z,6.85
2022-11-08T02:46:31.280Z,6.76
2022-11-08T02:51:34.779Z,6.56
2022-11-08T02:56:39.706Z,6.46
2022-11-08T03:01:43.518Z,6.17
2022-11-08T03:06:47.375Z,5.95
2022-11-08T03:11:52.414Z,5.80
2022-11-08T03:16:55.900Z,6.04
2022-11-08T03:21:59.498Z,5.89
2022-11-08T03:27:04.329Z,5.77
2022-11-08T03:32:07.830Z,5.94
2022-11-08T03:37:11.406Z,5.74
2022-11-08T03:42:16.213Z,5.76
2022-11-08T03:47:19.649Z,5.67
2022-11-08T03:52:23.116Z,5.56
2022-11-08T03:57:27.959Z,5.27
2022-11-08T04:02:31.569Z,5.29
2022-11-08T04:07:34.991Z,5.21
2022-11-08T04:12:59.044Z,5.26
2022-11-08T04:18:20.431Z,5.13
2022-11-08T04:23:24.123Z,5.05
2022-11-08T04:28:30.838Z,5.20
2022-11-08T04:33:34.351Z,5.01
2022-11-08T04:38:38.268Z,5.01
2022-11-08T04:43:43.425Z,4.68
2022-11-08T04:48:47.820Z,4.66
2022-11-08T04:53:51.750Z,4.63
2022-11-08T04:58:57.875Z,4.62
2022-11-08T05:04:01.517Z,4.48
2022-11-08T05:09:05.537Z,4.39
2022-11-08T05:14:10.556Z,4.41
2022-11-08T05:19:14.276Z,4.36
2022-11-08T05:24:19.070Z,4.36
2022-11-08T05:29:24.491Z,4.15
2022-11-08T05:34:27.913Z,4.36
2022-11-08T05:44:56.288Z,6.87
2022-11-08T05:49:59.728Z,7.76
2022-11-08T05:55:03.244Z,8.14
2022-11-08T06:00:10.152Z,8.45
2022-11-08T06:05:15.030Z,8.61
2022-11-08T06:10:19.268Z,8.77
2022-11-08T06:15:24.106Z,8.90
2022-11-08T06:20:27.767Z,8.86
2022-11-08T06:25:31.221Z,8.87
2022-11-08T06:30:35.979Z,8.92
2022-11-08T06:35:39.734Z,9.32
2022-11-08T06:40:43.104Z,9.28
2022-11-08T06:45:48.575Z,9.49
2022-11-08T06:50:51.921Z,9.33
2022-11-08T06:55:55.314Z,9.47
2022-11-08T07:01:03.530Z,9.58
2022-11-08T07:06:07.805Z,9.66
2022-11-08T07:11:11.323Z,9.87
2022-11-08T07:16:16.609Z,9.85
2022-11-08T07:21:20.018Z,9.96
2022-11-08T07:26:23.537Z,10.11
2022-11-08T07:31:28.829Z,10.18
2022-11-08T07:36:32.229Z,10.40
2022-11-08T07:41:35.724Z,10.49
2022-11-08T07:46:40.582Z,10.57
2022-11-08T07:51:44.018Z,10.92
2022-11-08T07:56:47.561Z,11.15
2022-11-08T08:01:52.529Z,11.28
2022-11-08T08:06:56.259Z,11.62
2022-11-08T08:11:59.775Z,11.65
2022-11-08T08:17:04.669Z,12.11
2022-11-08T08:22:08.379Z,12.14
2022-11-08T08:27:12.385Z,12.11
2022-11-08T08:32:17.180Z,12.50
2022-11-08T08:37:20.535Z,12.71
2022-11-08T08:42:23.990Z,12.88
2022-11-08T08:47:29.240Z,12.82
2022-11-08T08:52:32.772Z,12.98
2022-11-08T08:57:36.307Z,12.72
2022-11-08T09:02:42.710Z,12.81
2022-11-08T09:07:46.361Z,12.87
2022-11-08T09:12:50.262Z,12.96
2022-11-08T09:17:56.333Z,13.17
2022-11-08T09:23:02.489Z,12.94
2022-11-08T09:28:06.337Z,13.22
2022-11-08T09:33:11.164Z,13.57
2022-11-08T09:38:14.864Z,13.65
2022-11-08T09:43:37.399Z,13.95
2022-11-08T09:48:45.249Z,14.36
2022-11-08T09:53:53.009Z,14.47
2022-11-08T09:59:02.215Z,14.38
2022-11-08T10:04:15.008Z,14.27
2022-11-08T10:09:33.484Z,14.17
2022-11-08T10:14:54.510Z,13.99
2022-11-08T10:20:13.653Z,13.87
2022-11-08T10:25:24.112Z,14.22
2022-11-08T10:30:33.567Z,14.15
2022-11-08T10:35:45.363Z,14.20
2022-11-08T10:40:58.378Z,14.17
2022-11-08T10:46:02.227Z,14.26
2022-11-08T10:51:07.463Z,14.54
2022-11-08T10:56:11.012Z,14.27
2022-11-08T11:01:18.149Z,14.38
2022-11-08T11:06:25.878Z,14.57
2022-11-08T11:11:38.065Z,14.53
2022-11-08T11:16:54.888Z,14.72
2022-11-08T11:22:05.948Z,14.85
2022-11-08T11:27:21.884Z,14.71
2022-11-08T11:32:33.675Z,14.79
2022-11-08T11:37:43.835Z,14.72
2022-11-08T11:42:57.946Z,15.07
2022-11-08T11:48:06.014Z,15.57
2022-11-08T11:53:18.010Z,15.78
2022-11-08T11:58:35.146Z,16.00
2022-11-08T12:03:55.119Z,16.35
2022-11-08T12:09:20.420Z,16.87
2022-11-08T12:14:35.074Z,16.73
2022-11-08T12:19:46.393Z,17.20
2022-11-08T12:24:58.732Z,17.13
2022-11-08T12:30:05.385Z,17.37
2022-11-08T12:35:20.890Z,17.30
2022-11-08T12:40:34.116Z,17.31
2022-11-08T12:45:51.162Z,17.81
2022-11-08T12:51:05.694Z,17.16
2022-11-08T12:56:16.690Z,17.47
2022-11-08T13:01:22.598Z,17.03
2022-11-08T13:06:31.336Z,17.29
2022-11-08T13:11:46.567Z,17.41
2022-11-08T13:17:15.251Z,17.07
2022-11-08T13:22:47.874Z,16.76
2022-11-08T13:27:52.787Z,16.57
2022-11-08T13:33:05.434Z,16.33
2022-11-08T13:38:22.925Z,16.38
2022-11-08T13:43:30.446Z,16.13
2022-11-08T13:49:06.640Z,16.15
2022-11-08T13:54:43.364Z,15.99
2022-11-08T13:59:57.778Z,16.02
2022-11-08T14:05:28.991Z,15.86
2022-11-08T14:10:42.066Z,15.95
2022-11-08T14:15:52.059Z,15.61
2022-11-08T14:20:56.169Z,15.84
2022-11-08T14:26:02.951Z,15.56
2022-11-08T14:31:14.458Z,15.30
2022-11-08T14:36:19.834Z,15.13
2022-11-08T14:41:27.220Z,15.11
2022-11-08T14:46:35.805Z,15.01
2022-11-08T14:51:39.628Z,14.72
2022-11-08T14:56:45.081Z,14.93
2022-11-08T15:01:50.841Z,14.69
2022-11-08T15:06:57.378Z,14.54
2022-11-08T15:12:04.275Z,14.43
2022-11-08T15:17:34.292Z,14.16
2022-11-08T15:22:38.458Z,14.06
2022-11-08T15:27:47.969Z,14.04
2022-11-08T15:32:52.859Z,13.93
2022-11-08T15:38:01.480Z,13.94
2022-11-08T15:43:05.328Z,13.69
2022-11-08T15:48:22.324Z,13.81
2022-11-08T15:53:26.992Z,13.66
2022-11-08T15:58:38.273Z,13.71
2022-11-08T16:03:45.050Z,13.61
2022-11-08T16:08:48.631Z,13.75
2022-11-08T16:13:52.496Z,13.70
2022-11-08T16:18:57.843Z,13.75
2022-11-08T16:24:01.295Z,13.70
2022-11-08T16:29:06.070Z,13.67
2022-11-08T16:34:12.250Z,13.74
2022-11-08T16:39:17.739Z,13.61
2022-11-08T16:44:21.101Z,13.56
2022-11-08T16:49:27.134Z,13.43
2022-11-08T16:54:30.467Z,13.40
2022-11-08T16:59:34.057Z,13.52
2022-11-08T17:04:38.850Z,13.50
2022-11-08T17:09:42.861Z,13.53
2022-11-08T17:14:46.460Z,13.54
2022-11-08T17:19:51.772Z,13.34
2022-11-08T17:24:55.978Z,13.42
2022-11-08T17:30:02.092Z,13.39
2022-11-08T17:35:09.473Z,13.41
2022-11-08T17:40:13.329Z,13.43
2022-11-08T17:45:16.821Z,13.39
2022-11-08T17:50:21.814Z,13.41
2022-11-08T17:55:25.963Z,13.50
2022-11-08T18:00:29.523Z,13.57
2022-11-08T18:05:34.458Z,13.47
2022-11-08T18:10:38.069Z,13.64
2022-11-08T18:15:41.857Z,13.55
2022-11-08T18:20:47.419Z,13.48
2022-11-08T18:25:53.297Z,13.49
2022-11-08T18:30:56.631Z,13.37
2022-11-08T18:36:05.707Z,13.39
2022-11-08T18:41:09.665Z,13.39
2022-11-08T18:46:14.779Z,13.45
2022-11-08T18:51:21.569Z,13.28
2022-11-08T18:56:25.372Z,13.26
2022-11-08T19:01:29.929Z,13.14
2022-11-08T19:06:35.207Z,13.19
2022-11-08T19:11:38.883Z,13.24
2022-11-08T19:16:42.875Z,13.25
2022-11-08T19:21:47.982Z,13.33
2022-11-08T19:26:51.484Z,13.29
2022-11-08T19:31:56.626Z,13.34
2022-11-08T19:37:01.451Z,13.28
2022-11-08T19:42:06.204Z,13.18
2022-11-08T19:47:10.300Z,12.99
2022-11-08T19:52:16.362Z,12.77
2022-11-08T19:57:20.347Z,12.82
2022-11-08T20:02:24.232Z,12.74
2022-11-08T20:07:29.698Z,12.44
2022-11-08T20:12:33.763Z,12.51
2022-11-08T20:17:37.680Z,12.46
2022-11-08T20:22:46.975Z,12.11
2022-11-08T20:27:51.936Z,12.23
2022-11-08T20:32:55.370Z,12.33
2022-11-08T20:38:00.811Z,12.15
2022-11-08T20:43:04.280Z,12.11
2022-11-08T20:48:08.071Z,12.19
2022-11-08T20:53:13.181Z,12.17
2022-11-08T20:58:16.810Z,12.17
2022-11-08T21:03:20.487Z,12.05
2022-11-08T21:08:58.467Z,11.99
2022-11-08T21:13:49.819Z,12.06
2022-11-08T21:18:53.523Z,11.97
2022-11-08T21:23:58.289Z,12.08
2022-11-08T21:29:02.197Z,12.11
2022-11-08T21:34:05.562Z,12.02
2022-11-08T21:39:11.683Z,11.91
2022-11-08T21:44:15.482Z,11.99
2022-11-08T21:49:18.780Z,12.05
2022-11-08T21:54:23.659Z,12.15
2022-11-08T21:59:27.108Z,12.11
2022-11-08T22:04:30.637Z,12.21
2022-11-08T22:09:35.455Z,12.05
2022-11-08T22:14:38.997Z,12.16
2022-11-08T22:19:42.771Z,12.05
2022-11-08T22:24:47.448Z,12.22
2022-11-08T22:29:51.126Z,12.28
2022-11-08T22:34:54.433Z,12.36
2022-11-08T22:39:59.291Z,12.27
2022-11-08T22:45:02.853Z,12.43
2022-11-08T22:50:06.955Z,12.51
2022-11-08T22:55:11.929Z,12.54
2022-11-08T23:00:16.075Z,12.52
2022-11-08T23:05:19.555Z,12.60
2022-11-08T23:10:24.337Z,12.62
2022-11-08T23:15:45.260Z,12.75
2022-11-08T23:21:05.898Z,12.70
2022-11-08T23:26:10.664Z,12.63
2022-11-08T23:31:31.117Z,12.66
2022-11-08T23:36:34.428Z,12.71
2022-11-08T23:41:56.396Z,12.63
2022-11-08T23:47:01.392Z,12.67
2022-11-08T23:52:04.939Z,12.68
2022-11-08T23:57:09.774Z,12.43
